sensor_id;sensor_type;location;lat;lon;timestamp;temperature;humidity
39493;DHT22;25176;51.060;3.720;2023-03-29T00:00:20;9.90;88.40
39493;DHT22;25176;51.060;3.720;2023-03-29T00:02:46;10.00;88.30
39493;DHT22;25176;51.060;3.720;2023-03-29T00:05:17;10.00;88.40
39493;DHT22;25176;51.060;3.720;2023-03-29T00:07:42;10.00;88.20
39493;DHT22;25176;51.060;3.720;2023-03-29T00:10:09;10.00;88.50
39493;DHT22;25176;51.060;3.720;2023-03-29T00:12:37;10.10;88.40
39493;DHT22;25176;51.060;3.720;2023-03-29T00:15:04;10.20;88.00
39493;DHT22;25176;51.060;3.720;2023-03-29T00:17:30;10.20;87.80
39493;DHT22;25176;51.060;3.720;2023-03-29T00:19:56;10.20;88.10
39493;DHT22;25176;51.060;3.720;2023-03-29T00:22:22;10.20;87.70
39493;DHT22;25176;51.060;3.720;2023-03-29T00:24:51;10.30;87.70
39493;DHT22;25176;51.060;3.720;2023-03-29T00:27:18;10.20;87.60
39493;DHT22;25176;51.060;3.720;2023-03-29T00:29:43;10.20;88.00
39493;DHT22;25176;51.060;3.720;2023-03-29T00:32:10;10.20;88.20
39493;DHT22;25176;51.060;3.720;2023-03-29T00:34:36;10.10;88.10
39493;DHT22;25176;51.060;3.720;2023-03-29T00:37:02;10.10;88.40
39493;DHT22;25176;51.060;3.720;2023-03-29T00:39:29;10.10;88.40
39493;DHT22;25176;51.060;3.720;2023-03-29T00:41:55;10.10;88.20
39493;DHT22;25176;51.060;3.720;2023-03-29T00:47:17;10.10;88.50
39493;DHT22;25176;51.060;3.720;2023-03-29T00:49:46;10.10;88.40
39493;DHT22;25176;51.060;3.720;2023-03-29T00:52:14;10.20;88.20
39493;DHT22;25176;51.060;3.720;2023-03-29T00:54:42;10.20;88.10
39493;DHT22;25176;51.060;3.720;2023-03-29T00:57:10;10.20;88.40
39493;DHT22;25176;51.060;3.720;2023-03-29T00:59:38;10.20;88.70
39493;DHT22;25176;51.060;3.720;2023-03-29T01:02:06;10.20;88.60
39493;DHT22;25176;51.060;3.720;2023-03-29T01:04:35;10.20;88.50
39493;DHT22;25176;51.060;3.720;2023-03-29T01:07:08;10.20;88.80
39493;DHT22;25176;51.060;3.720;2023-03-29T01:09:36;10.20;88.80
39493;DHT22;25176;51.060;3.720;2023-03-29T01:12:12;10.30;88.80
39493;DHT22;25176;51.060;3.720;2023-03-29T01:14:47;10.30;88.70
39493;DHT22;25176;51.060;3.720;2023-03-29T01:17:14;10.40;88.60
39493;DHT22;25176;51.060;3.720;2023-03-29T01:19:49;10.50;88.90
39493;DHT22;25176;51.060;3.720;2023-03-29T01:22:24;10.60;88.40
39493;DHT22;25176;51.060;3.720;2023-03-29T01:25:24;10.70;88.30
39493;DHT22;25176;51.060;3.720;2023-03-29T01:28:13;10.70;88.20
39493;DHT22;25176;51.060;3.720;2023-03-29T01:30:47;10.70;88.50
39493;DHT22;25176;51.060;3.720;2023-03-29T01:33:30;10.60;88.40
39493;DHT22;25176;51.060;3.720;2023-03-29T01:36:05;10.60;88.50
39493;DHT22;25176;51.060;3.720;2023-03-29T01:38:42;10.60;88.70
39493;DHT22;25176;51.060;3.720;2023-03-29T01:41:10;10.70;88.50
39493;DHT22;25176;51.060;3.720;2023-03-29T01:43:59;10.60;89.00
39493;DHT22;25176;51.060;3.720;2023-03-29T01:47:07;10.60;89.00
39493;DHT22;25176;51.060;3.720;2023-03-29T01:49:46;10.60;89.30
39493;DHT22;25176;51.060;3.720;2023-03-29T01:52:19;10.50;89.30
39493;DHT22;25176;51.060;3.720;2023-03-29T01:54:53;10.60;89.50
39493;DHT22;25176;51.060;3.720;2023-03-29T01:57:20;10.60;89.40
39493;DHT22;25176;51.060;3.720;2023-03-29T01:59:47;10.70;89.50
39493;DHT22;25176;51.060;3.720;2023-03-29T02:02:15;10.80;89.00
39493;DHT22;25176;51.060;3.720;2023-03-29T02:04:48;10.90;88.60
39493;DHT22;25176;51.060;3.720;2023-03-29T02:07:20;10.80;89.00
39493;DHT22;25176;51.060;3.720;2023-03-29T02:09:48;10.70;89.30
39493;DHT22;25176;51.060;3.720;2023-03-29T02:12:18;10.70;89.90
39493;DHT22;25176;51.060;3.720;2023-03-29T02:14:45;10.70;89.90
39493;DHT22;25176;51.060;3.720;2023-03-29T02:17:21;10.80;89.70
39493;DHT22;25176;51.060;3.720;2023-03-29T02:19:51;10.80;89.70
39493;DHT22;25176;51.060;3.720;2023-03-29T02:22:23;10.80;90.00
39493;DHT22;25176;51.060;3.720;2023-03-29T02:24:53;10.60;90.10
39493;DHT22;25176;51.060;3.720;2023-03-29T02:27:20;10.60;90.40
39493;DHT22;25176;51.060;3.720;2023-03-29T02:29:46;10.70;90.40
39493;DHT22;25176;51.060;3.720;2023-03-29T02:32:18;10.70;90.40
39493;DHT22;25176;51.060;3.720;2023-03-29T02:34:54;10.80;90.50
39493;DHT22;25176;51.060;3.720;2023-03-29T02:37:24;10.70;90.50
39493;DHT22;25176;51.060;3.720;2023-03-29T02:39:54;10.80;90.40
39493;DHT22;25176;51.060;3.720;2023-03-29T02:42:20;10.80;90.60
39493;DHT22;25176;51.060;3.720;2023-03-29T02:44:48;10.70;90.70
39493;DHT22;25176;51.060;3.720;2023-03-29T02:47:22;10.60;90.80
39493;DHT22;25176;51.060;3.720;2023-03-29T02:49:49;10.70;91.00
39493;DHT22;25176;51.060;3.720;2023-03-29T02:52:18;10.70;91.20
39493;DHT22;25176;51.060;3.720;2023-03-29T02:54:47;10.70;91.00
39493;DHT22;25176;51.060;3.720;2023-03-29T02:57:15;10.60;91.20
39493;DHT22;25176;51.060;3.720;2023-03-29T02:59:41;10.60;91.20
39493;DHT22;25176;51.060;3.720;2023-03-29T03:02:08;10.60;91.30
39493;DHT22;25176;51.060;3.720;2023-03-29T03:04:36;10.60;91.40
39493;DHT22;25176;51.060;3.720;2023-03-29T03:07:02;10.60;91.40
39493;DHT22;25176;51.060;3.720;2023-03-29T03:09:29;10.50;91.50
39493;DHT22;25176;51.060;3.720;2023-03-29T03:11:55;10.60;91.50
39493;DHT22;25176;51.060;3.720;2023-03-29T03:14:21;10.50;91.70
39493;DHT22;25176;51.060;3.720;2023-03-29T03:16:47;10.60;91.60
39493;DHT22;25176;51.060;3.720;2023-03-29T03:19:14;10.60;91.60
39493;DHT22;25176;51.060;3.720;2023-03-29T03:21:40;10.60;91.60
39493;DHT22;25176;51.060;3.720;2023-03-29T03:24:06;10.50;91.70
39493;DHT22;25176;51.060;3.720;2023-03-29T03:26:32;10.50;91.80
39493;DHT22;25176;51.060;3.720;2023-03-29T03:28:58;10.40;91.90
39493;DHT22;25176;51.060;3.720;2023-03-29T03:31:24;10.40;92.00
39493;DHT22;25176;51.060;3.720;2023-03-29T03:33:49;10.60;91.80
39493;DHT22;25176;51.060;3.720;2023-03-29T03:36:15;10.50;91.70
39493;DHT22;25176;51.060;3.720;2023-03-29T03:38:40;10.40;92.00
39493;DHT22;25176;51.060;3.720;2023-03-29T03:41:08;10.50;91.70
39493;DHT22;25176;51.060;3.720;2023-03-29T03:43:34;10.50;91.80
39493;DHT22;25176;51.060;3.720;2023-03-29T03:45:59;10.50;91.90
39493;DHT22;25176;51.060;3.720;2023-03-29T03:48:26;10.40;92.10
39493;DHT22;25176;51.060;3.720;2023-03-29T03:50:54;10.30;92.30
39493;DHT22;25176;51.060;3.720;2023-03-29T03:53:23;10.40;92.20
39493;DHT22;25176;51.060;3.720;2023-03-29T03:55:53;10.30;92.20
39493;DHT22;25176;51.060;3.720;2023-03-29T03:58:20;10.30;92.40
39493;DHT22;25176;51.060;3.720;2023-03-29T04:00:50;10.30;92.40
39493;DHT22;25176;51.060;3.720;2023-03-29T04:03:16;10.30;92.60
39493;DHT22;25176;51.060;3.720;2023-03-29T04:05:44;10.20;92.70
39493;DHT22;25176;51.060;3.720;2023-03-29T04:08:11;10.20;92.70
39493;DHT22;25176;51.060;3.720;2023-03-29T04:10:37;10.20;92.80
39493;DHT22;25176;51.060;3.720;2023-03-29T04:13:04;10.20;92.90
39493;DHT22;25176;51.060;3.720;2023-03-29T04:15:31;10.30;92.90
39493;DHT22;25176;51.060;3.720;2023-03-29T04:17:58;10.30;93.10
39493;DHT22;25176;51.060;3.720;2023-03-29T04:20:25;10.30;92.90
39493;DHT22;25176;51.060;3.720;2023-03-29T04:22:52;10.30;92.80
39493;DHT22;25176;51.060;3.720;2023-03-29T04:25:18;10.40;93.00
39493;DHT22;25176;51.060;3.720;2023-03-29T04:27:45;10.40;93.00
39493;DHT22;25176;51.060;3.720;2023-03-29T04:30:11;10.40;92.80
39493;DHT22;25176;51.060;3.720;2023-03-29T04:32:37;10.50;92.80
39493;DHT22;25176;51.060;3.720;2023-03-29T04:35:03;10.60;92.40
39493;DHT22;25176;51.060;3.720;2023-03-29T04:37:30;10.60;92.70
39493;DHT22;25176;51.060;3.720;2023-03-29T04:39:56;10.50;92.80
39493;DHT22;25176;51.060;3.720;2023-03-29T04:42:25;10.50;92.80
39493;DHT22;25176;51.060;3.720;2023-03-29T04:44:50;10.50;93.00
39493;DHT22;25176;51.060;3.720;2023-03-29T04:47:18;10.30;93.10
39493;DHT22;25176;51.060;3.720;2023-03-29T04:49:44;10.40;93.20
39493;DHT22;25176;51.060;3.720;2023-03-29T04:52:10;10.40;93.10
39493;DHT22;25176;51.060;3.720;2023-03-29T04:54:36;10.40;93.10
39493;DHT22;25176;51.060;3.720;2023-03-29T04:57:05;10.40;93.20
39493;DHT22;25176;51.060;3.720;2023-03-29T04:59:31;10.50;93.30
39493;DHT22;25176;51.060;3.720;2023-03-29T05:01:57;10.50;93.30
39493;DHT22;25176;51.060;3.720;2023-03-29T05:04:23;10.50;93.20
39493;DHT22;25176;51.060;3.720;2023-03-29T05:06:49;10.50;93.30
39493;DHT22;25176;51.060;3.720;2023-03-29T05:09:14;10.50;93.50
39493;DHT22;25176;51.060;3.720;2023-03-29T05:11:41;10.50;93.40
39493;DHT22;25176;51.060;3.720;2023-03-29T05:14:06;10.40;93.50
39493;DHT22;25176;51.060;3.720;2023-03-29T05:16:33;10.50;93.60
39493;DHT22;25176;51.060;3.720;2023-03-29T05:19:00;10.70;93.40
39493;DHT22;25176;51.060;3.720;2023-03-29T05:21:26;10.80;93.20
39493;DHT22;25176;51.060;3.720;2023-03-29T05:23:53;10.90;93.10
39493;DHT22;25176;51.060;3.720;2023-03-29T05:26:22;10.80;93.10
39493;DHT22;25176;51.060;3.720;2023-03-29T05:28:50;10.70;93.70
39493;DHT22;25176;51.060;3.720;2023-03-29T05:31:16;10.60;93.80
39493;DHT22;25176;51.060;3.720;2023-03-29T05:33:42;10.60;94.00
39493;DHT22;25176;51.060;3.720;2023-03-29T05:36:13;10.80;93.90
39493;DHT22;25176;51.060;3.720;2023-03-29T05:38:40;10.90;93.80
39493;DHT22;25176;51.060;3.720;2023-03-29T05:41:07;10.90;93.70
39493;DHT22;25176;51.060;3.720;2023-03-29T05:43:33;10.90;94.00
39493;DHT22;25176;51.060;3.720;2023-03-29T05:45:59;11.00;93.90
39493;DHT22;25176;51.060;3.720;2023-03-29T05:48:25;11.00;94.00
39493;DHT22;25176;51.060;3.720;2023-03-29T05:50:54;11.10;94.00
39493;DHT22;25176;51.060;3.720;2023-03-29T05:53:22;11.00;94.20
39493;DHT22;25176;51.060;3.720;2023-03-29T05:55:49;11.00;94.40
39493;DHT22;25176;51.060;3.720;2023-03-29T05:58:15;10.90;94.70
39493;DHT22;25176;51.060;3.720;2023-03-29T06:00:45;10.90;95.00
39493;DHT22;25176;51.060;3.720;2023-03-29T06:03:22;11.00;94.70
39493;DHT22;25176;51.060;3.720;2023-03-29T06:06:00;10.80;94.90
39493;DHT22;25176;51.060;3.720;2023-03-29T06:08:30;10.80;95.00
39493;DHT22;25176;51.060;3.720;2023-03-29T06:11:01;10.80;95.10
39493;DHT22;25176;51.060;3.720;2023-03-29T06:13:32;10.90;94.90
39493;DHT22;25176;51.060;3.720;2023-03-29T06:16:02;10.70;95.20
39493;DHT22;25176;51.060;3.720;2023-03-29T06:18:29;10.70;95.50
39493;DHT22;25176;51.060;3.720;2023-03-29T06:20:54;10.70;95.50
39493;DHT22;25176;51.060;3.720;2023-03-29T06:23:21;10.80;95.80
39493;DHT22;25176;51.060;3.720;2023-03-29T06:25:47;10.80;95.80
39493;DHT22;25176;51.060;3.720;2023-03-29T06:28:16;10.70;96.10
39493;DHT22;25176;51.060;3.720;2023-03-29T06:30:42;10.60;96.60
39493;DHT22;25176;51.060;3.720;2023-03-29T06:33:08;10.60;96.90
39493;DHT22;25176;51.060;3.720;2023-03-29T06:35:35;10.70;97.20
39493;DHT22;25176;51.060;3.720;2023-03-29T06:38:02;10.60;97.40
39493;DHT22;25176;51.060;3.720;2023-03-29T06:40:28;10.70;97.70
39493;DHT22;25176;51.060;3.720;2023-03-29T06:42:54;10.80;97.60
39493;DHT22;25176;51.060;3.720;2023-03-29T06:45:26;10.80;97.90
39493;DHT22;25176;51.060;3.720;2023-03-29T06:47:53;10.90;97.80
39493;DHT22;25176;51.060;3.720;2023-03-29T06:50:19;10.90;97.80
39493;DHT22;25176;51.060;3.720;2023-03-29T06:52:45;11.00;97.80
39493;DHT22;25176;51.060;3.720;2023-03-29T06:55:12;11.20;97.70
39493;DHT22;25176;51.060;3.720;2023-03-29T06:57:38;11.30;97.50
39493;DHT22;25176;51.060;3.720;2023-03-29T07:00:05;11.20;97.50
39493;DHT22;25176;51.060;3.720;2023-03-29T07:02:51;11.40;97.50
39493;DHT22;25176;51.060;3.720;2023-03-29T07:05:17;11.40;97.00
39493;DHT22;25176;51.060;3.720;2023-03-29T07:07:45;11.40;97.20
39493;DHT22;25176;51.060;3.720;2023-03-29T07:10:48;11.30;97.40
39493;DHT22;25176;51.060;3.720;2023-03-29T07:13:17;11.40;97.50
39493;DHT22;25176;51.060;3.720;2023-03-29T07:15:43;11.30;97.30
39493;DHT22;25176;51.060;3.720;2023-03-29T07:18:10;11.20;97.60
39493;DHT22;25176;51.060;3.720;2023-03-29T07:20:37;11.40;97.60
39493;DHT22;25176;51.060;3.720;2023-03-29T07:23:04;11.40;96.90
39493;DHT22;25176;51.060;3.720;2023-03-29T07:25:30;11.40;97.30
39493;DHT22;25176;51.060;3.720;2023-03-29T07:27:56;11.60;97.10
39493;DHT22;25176;51.060;3.720;2023-03-29T07:30:25;11.60;96.90
39493;DHT22;25176;51.060;3.720;2023-03-29T07:32:53;11.70;96.40
39493;DHT22;25176;51.060;3.720;2023-03-29T07:35:20;11.80;96.50
39493;DHT22;25176;51.060;3.720;2023-03-29T07:37:48;11.90;96.20
39493;DHT22;25176;51.060;3.720;2023-03-29T07:40:16;11.90;96.00
39493;DHT22;25176;51.060;3.720;2023-03-29T07:42:57;11.90;96.10
39493;DHT22;25176;51.060;3.720;2023-03-29T07:45:24;12.00;95.80
39493;DHT22;25176;51.060;3.720;2023-03-29T07:47:57;12.00;96.10
39493;DHT22;25176;51.060;3.720;2023-03-29T07:50:23;12.10;96.00
39493;DHT22;25176;51.060;3.720;2023-03-29T07:52:49;12.10;95.90
39493;DHT22;25176;51.060;3.720;2023-03-29T07:55:15;12.10;96.00
39493;DHT22;25176;51.060;3.720;2023-03-29T07:57:41;12.10;95.80
39493;DHT22;25176;51.060;3.720;2023-03-29T08:00:10;12.10;96.10
39493;DHT22;25176;51.060;3.720;2023-03-29T08:02:48;12.00;95.90
39493;DHT22;25176;51.060;3.720;2023-03-29T08:05:15;12.10;96.10
39493;DHT22;25176;51.060;3.720;2023-03-29T08:07:43;12.10;96.10
39493;DHT22;25176;51.060;3.720;2023-03-29T08:10:12;12.00;96.10
39493;DHT22;25176;51.060;3.720;2023-03-29T08:12:39;12.10;96.20
39493;DHT22;25176;51.060;3.720;2023-03-29T08:15:05;12.30;95.90
39493;DHT22;25176;51.060;3.720;2023-03-29T08:17:31;12.50;95.80
39493;DHT22;25176;51.060;3.720;2023-03-29T08:19:57;12.60;95.60
39493;DHT22;25176;51.060;3.720;2023-03-29T08:22:23;12.40;95.50
39493;DHT22;25176;51.060;3.720;2023-03-29T08:24:49;12.40;95.70
39493;DHT22;25176;51.060;3.720;2023-03-29T08:27:14;12.60;95.80
39493;DHT22;25176;51.060;3.720;2023-03-29T08:29:40;12.90;95.20
39493;DHT22;25176;51.060;3.720;2023-03-29T08:32:06;13.10;95.00
39493;DHT22;25176;51.060;3.720;2023-03-29T08:34:32;13.20;94.50
39493;DHT22;25176;51.060;3.720;2023-03-29T08:37:00;13.50;94.30
39493;DHT22;25176;51.060;3.720;2023-03-29T08:39:26;13.50;94.30
39493;DHT22;25176;51.060;3.720;2023-03-29T08:42:09;13.40;94.20
39493;DHT22;25176;51.060;3.720;2023-03-29T08:47:42;13.60;94.60
39493;DHT22;25176;51.060;3.720;2023-03-29T08:50:11;14.00;94.10
39493;DHT22;25176;51.060;3.720;2023-03-29T08:52:51;13.90;94.10
39493;DHT22;25176;51.060;3.720;2023-03-29T08:55:41;14.10;93.90
39493;DHT22;25176;51.060;3.720;2023-03-29T08:58:19;14.30;93.60
39493;DHT22;25176;51.060;3.720;2023-03-29T09:00:52;14.20;93.70
39493;DHT22;25176;51.060;3.720;2023-03-29T09:03:20;14.30;93.90
39493;DHT22;25176;51.060;3.720;2023-03-29T09:05:48;14.30;93.80
39493;DHT22;25176;51.060;3.720;2023-03-29T09:08:18;14.60;94.00
39493;DHT22;25176;51.060;3.720;2023-03-29T09:19:33;16.70;91.30
39493;DHT22;25176;51.060;3.720;2023-03-29T09:22:26;18.40;88.50
39493;DHT22;25176;51.060;3.720;2023-03-29T09:25:39;20.30;85.90
39493;DHT22;25176;51.060;3.720;2023-03-29T09:28:20;22.10;81.40
39493;DHT22;25176;51.060;3.720;2023-03-29T09:30:52;21.70;78.80
39493;DHT22;25176;51.060;3.720;2023-03-29T09:33:39;20.80;79.80
39493;DHT22;25176;51.060;3.720;2023-03-29T09:36:22;20.70;81.00
39493;DHT22;25176;51.060;3.720;2023-03-29T09:38:49;19.50;82.20
39493;DHT22;25176;51.060;3.720;2023-03-29T09:41:53;19.10;84.70
39493;DHT22;25176;51.060;3.720;2023-03-29T09:44:23;19.20;85.60
39493;DHT22;25176;51.060;3.720;2023-03-29T09:46:53;19.70;83.30
39493;DHT22;25176;51.060;3.720;2023-03-29T09:49:25;19.70;83.40
39493;DHT22;25176;51.060;3.720;2023-03-29T09:51:55;19.00;84.40
39493;DHT22;25176;51.060;3.720;2023-03-29T09:54:23;18.20;86.20
39493;DHT22;25176;51.060;3.720;2023-03-29T09:56:49;17.30;89.00
39493;DHT22;25176;51.060;3.720;2023-03-29T09:59:17;17.10;90.60
39493;DHT22;25176;51.060;3.720;2023-03-29T10:01:42;17.10;90.50
39493;DHT22;25176;51.060;3.720;2023-03-29T10:04:12;17.50;90.00
39493;DHT22;25176;51.060;3.720;2023-03-29T10:06:48;17.40;90.30
39493;DHT22;25176;51.060;3.720;2023-03-29T10:09:19;17.30;90.20
39493;DHT22;25176;51.060;3.720;2023-03-29T10:11:48;17.20;90.60
39493;DHT22;25176;51.060;3.720;2023-03-29T10:14:18;17.60;90.40
39493;DHT22;25176;51.060;3.720;2023-03-29T10:16:46;17.60;89.90
39493;DHT22;25176;51.060;3.720;2023-03-29T10:21:54;17.70;90.10
39493;DHT22;25176;51.060;3.720;2023-03-29T10:24:21;17.40;89.90
39493;DHT22;25176;51.060;3.720;2023-03-29T10:26:51;17.20;90.60
39493;DHT22;25176;51.060;3.720;2023-03-29T10:29:20;17.30;90.40
39493;DHT22;25176;51.060;3.720;2023-03-29T10:31:46;17.20;90.70
39493;DHT22;25176;51.060;3.720;2023-03-29T10:34:14;17.20;90.80
39493;DHT22;25176;51.060;3.720;2023-03-29T10:36:56;17.00;91.20
39493;DHT22;25176;51.060;3.720;2023-03-29T10:39:26;17.00;91.30
39493;DHT22;25176;51.060;3.720;2023-03-29T10:41:53;17.20;91.20
39493;DHT22;25176;51.060;3.720;2023-03-29T10:44:29;17.10;91.40
39493;DHT22;25176;51.060;3.720;2023-03-29T10:47:05;16.90;91.60
39493;DHT22;25176;51.060;3.720;2023-03-29T10:49:42;17.20;91.40
39493;DHT22;25176;51.060;3.720;2023-03-29T10:52:08;17.50;91.30
39493;DHT22;25176;51.060;3.720;2023-03-29T10:54:35;17.40;91.10
39493;DHT22;25176;51.060;3.720;2023-03-29T10:57:04;17.20;91.30
39493;DHT22;25176;51.060;3.720;2023-03-29T11:00:02;17.20;91.80
39493;DHT22;25176;51.060;3.720;2023-03-29T11:11:23;17.60;91.00
39493;DHT22;25176;51.060;3.720;2023-03-29T11:16:56;17.30;91.30
39493;DHT22;25176;51.060;3.720;2023-03-29T11:28:23;17.30;91.60
39493;DHT22;25176;51.060;3.720;2023-03-29T11:36:34;17.10;92.10
39493;DHT22;25176;51.060;3.720;2023-03-29T11:39:36;17.10;92.00
39493;DHT22;25176;51.060;3.720;2023-03-29T11:42:15;17.00;92.50
39493;DHT22;25176;51.060;3.720;2023-03-29T11:44:43;17.30;92.50
39493;DHT22;25176;51.060;3.720;2023-03-29T11:47:20;17.60;91.80
39493;DHT22;25176;51.060;3.720;2023-03-29T11:49:56;17.60;91.50
39493;DHT22;25176;51.060;3.720;2023-03-29T11:52:29;17.80;91.50
39493;DHT22;25176;51.060;3.720;2023-03-29T11:55:11;17.60;91.40
39493;DHT22;25176;51.060;3.720;2023-03-29T12:03:29;18.00;90.80
39493;DHT22;25176;51.060;3.720;2023-03-29T12:05:42;18.20;90.80
39493;DHT22;25176;51.060;3.720;2023-03-29T12:08:24;18.00;90.90
39493;DHT22;25176;51.060;3.720;2023-03-29T12:11:10;18.10;91.00
39493;DHT22;25176;51.060;3.720;2023-03-29T12:13:45;17.80;91.20
39493;DHT22;25176;51.060;3.720;2023-03-29T12:19:33;18.00;91.10
39493;DHT22;25176;51.060;3.720;2023-03-29T12:22:00;17.80;91.60
39493;DHT22;25176;51.060;3.720;2023-03-29T12:24:30;18.20;91.60
39493;DHT22;25176;51.060;3.720;2023-03-29T12:30:15;18.30;91.30
39493;DHT22;25176;51.060;3.720;2023-03-29T12:38:23;18.40;91.40
39493;DHT22;25176;51.060;3.720;2023-03-29T12:40:59;18.70;91.50
39493;DHT22;25176;51.060;3.720;2023-03-29T12:43:30;18.70;91.40
39493;DHT22;25176;51.060;3.720;2023-03-29T12:46:16;18.90;91.40
39493;DHT22;25176;51.060;3.720;2023-03-29T13:10:36;18.20;92.50
39493;DHT22;25176;51.060;3.720;2023-03-29T13:13:16;18.50;92.00
39493;DHT22;25176;51.060;3.720;2023-03-29T13:15:43;18.50;92.10
39493;DHT22;25176;51.060;3.720;2023-03-29T13:18:25;18.60;92.10
39493;DHT22;25176;51.060;3.720;2023-03-29T13:21:34;18.70;91.90
39493;DHT22;25176;51.060;3.720;2023-03-29T13:24:22;18.50;92.30
39493;DHT22;25176;51.060;3.720;2023-03-29T13:29:56;18.60;92.30
39493;DHT22;25176;51.060;3.720;2023-03-29T13:32:46;18.60;92.30
39493;DHT22;25176;51.060;3.720;2023-03-29T13:43:17;18.80;92.90
39493;DHT22;25176;51.060;3.720;2023-03-29T13:46:03;18.70;92.80
39493;DHT22;25176;51.060;3.720;2023-03-29T13:48:31;18.40;93.20
39493;DHT22;25176;51.060;3.720;2023-03-29T13:53:44;18.40;93.30
39493;DHT22;25176;51.060;3.720;2023-03-29T13:56:17;18.30;93.40
39493;DHT22;25176;51.060;3.720;2023-03-29T13:58:47;18.40;93.60
39493;DHT22;25176;51.060;3.720;2023-03-29T14:04:15;18.20;94.10
39493;DHT22;25176;51.060;3.720;2023-03-29T14:06:47;18.10;94.20
39493;DHT22;25176;51.060;3.720;2023-03-29T14:09:16;18.20;94.00
39493;DHT22;25176;51.060;3.720;2023-03-29T14:11:46;18.20;93.90
39493;DHT22;25176;51.060;3.720;2023-03-29T14:14:12;18.20;94.20
39493;DHT22;25176;51.060;3.720;2023-03-29T14:16:39;18.30;94.00
39493;DHT22;25176;51.060;3.720;2023-03-29T14:19:14;18.30;93.90
39493;DHT22;25176;51.060;3.720;2023-03-29T14:21:42;18.40;93.90
39493;DHT22;25176;51.060;3.720;2023-03-29T14:24:11;18.30;94.10
39493;DHT22;25176;51.060;3.720;2023-03-29T14:26:37;18.60;93.90
39493;DHT22;25176;51.060;3.720;2023-03-29T14:29:09;18.80;93.50
39493;DHT22;25176;51.060;3.720;2023-03-29T14:31:38;18.90;93.40
39493;DHT22;25176;51.060;3.720;2023-03-29T14:34:10;18.80;93.30
39493;DHT22;25176;51.060;3.720;2023-03-29T14:36:37;18.70;93.50
39493;DHT22;25176;51.060;3.720;2023-03-29T14:39:06;18.60;93.60
39493;DHT22;25176;51.060;3.720;2023-03-29T14:41:35;18.40;94.40
39493;DHT22;25176;51.060;3.720;2023-03-29T14:44:02;18.70;94.00
39493;DHT22;25176;51.060;3.720;2023-03-29T14:46:29;18.80;93.40
39493;DHT22;25176;51.060;3.720;2023-03-29T14:48:55;18.90;93.70
39493;DHT22;25176;51.060;3.720;2023-03-29T14:51:22;18.90;93.60
39493;DHT22;25176;51.060;3.720;2023-03-29T14:53:51;18.80;94.00
39493;DHT22;25176;51.060;3.720;2023-03-29T14:56:17;18.70;94.00
39493;DHT22;25176;51.060;3.720;2023-03-29T14:58:48;18.60;94.30
39493;DHT22;25176;51.060;3.720;2023-03-29T15:01:16;18.60;94.30
39493;DHT22;25176;51.060;3.720;2023-03-29T15:03:48;18.60;94.20
39493;DHT22;25176;51.060;3.720;2023-03-29T15:06:15;18.40;94.50
39493;DHT22;25176;51.060;3.720;2023-03-29T15:08:42;18.30;94.70
39493;DHT22;25176;51.060;3.720;2023-03-29T15:11:20;18.40;94.80
39493;DHT22;25176;51.060;3.720;2023-03-29T15:13:49;18.40;94.60
39493;DHT22;25176;51.060;3.720;2023-03-29T15:16:18;18.30;94.70
39493;DHT22;25176;51.060;3.720;2023-03-29T15:18:47;18.30;94.80
39493;DHT22;25176;51.060;3.720;2023-03-29T15:21:14;18.10;95.00
39493;DHT22;25176;51.060;3.720;2023-03-29T15:23:50;17.90;95.30
39493;DHT22;25176;51.060;3.720;2023-03-29T15:28:47;17.80;95.40
39493;DHT22;25176;51.060;3.720;2023-03-29T15:31:17;18.00;95.40
39493;DHT22;25176;51.060;3.720;2023-03-29T15:33:42;18.20;95.20
39493;DHT22;25176;51.060;3.720;2023-03-29T15:36:10;18.30;95.00
39493;DHT22;25176;51.060;3.720;2023-03-29T15:38:37;18.10;95.00
39493;DHT22;25176;51.060;3.720;2023-03-29T15:41:03;18.00;95.40
39493;DHT22;25176;51.060;3.720;2023-03-29T15:43:29;18.00;95.20
39493;DHT22;25176;51.060;3.720;2023-03-29T15:45:56;17.80;95.30
39493;DHT22;25176;51.060;3.720;2023-03-29T15:48:24;17.80;95.50
39493;DHT22;25176;51.060;3.720;2023-03-29T15:50:51;17.90;95.50
39493;DHT22;25176;51.060;3.720;2023-03-29T15:53:17;17.90;95.40
39493;DHT22;25176;51.060;3.720;2023-03-29T15:55:47;17.80;95.60
39493;DHT22;25176;51.060;3.720;2023-03-29T15:58:16;17.90;95.30
39493;DHT22;25176;51.060;3.720;2023-03-29T16:00:48;17.90;95.50
39493;DHT22;25176;51.060;3.720;2023-03-29T16:03:15;18.00;95.30
39493;DHT22;25176;51.060;3.720;2023-03-29T16:05:42;18.00;95.40
39493;DHT22;25176;51.060;3.720;2023-03-29T16:08:10;18.00;95.30
39493;DHT22;25176;51.060;3.720;2023-03-29T16:10:35;18.00;95.50
39493;DHT22;25176;51.060;3.720;2023-03-29T16:13:01;17.90;95.30
39493;DHT22;25176;51.060;3.720;2023-03-29T16:15:27;17.90;95.50
39493;DHT22;25176;51.060;3.720;2023-03-29T16:17:52;17.90;95.50
39493;DHT22;25176;51.060;3.720;2023-03-29T16:20:18;17.90;95.60
39493;DHT22;25176;51.060;3.720;2023-03-29T16:22:47;17.90;95.70
39493;DHT22;25176;51.060;3.720;2023-03-29T16:25:18;17.70;95.90
39493;DHT22;25176;51.060;3.720;2023-03-29T16:27:48;17.80;96.00
39493;DHT22;25176;51.060;3.720;2023-03-29T16:30:14;17.70;95.90
39493;DHT22;25176;51.060;3.720;2023-03-29T16:32:40;17.80;96.00
39493;DHT22;25176;51.060;3.720;2023-03-29T16:35:27;17.80;95.70
39493;DHT22;25176;51.060;3.720;2023-03-29T16:37:52;17.80;95.80
39493;DHT22;25176;51.060;3.720;2023-03-29T16:40:18;17.80;95.90
39493;DHT22;25176;51.060;3.720;2023-03-29T16:42:45;17.80;95.90
39493;DHT22;25176;51.060;3.720;2023-03-29T16:45:12;17.80;95.80
39493;DHT22;25176;51.060;3.720;2023-03-29T16:47:38;17.90;95.90
39493;DHT22;25176;51.060;3.720;2023-03-29T16:50:05;17.90;95.70
39493;DHT22;25176;51.060;3.720;2023-03-29T16:52:31;17.90;95.90
39493;DHT22;25176;51.060;3.720;2023-03-29T16:54:57;17.70;96.00
39493;DHT22;25176;51.060;3.720;2023-03-29T16:57:22;17.60;96.10
39493;DHT22;25176;51.060;3.720;2023-03-29T16:59:49;17.60;96.10
39493;DHT22;25176;51.060;3.720;2023-03-29T17:02:15;17.70;95.90
39493;DHT22;25176;51.060;3.720;2023-03-29T17:04:41;17.70;95.90
39493;DHT22;25176;51.060;3.720;2023-03-29T17:07:07;17.60;96.00
39493;DHT22;25176;51.060;3.720;2023-03-29T17:09:32;17.60;96.00
39493;DHT22;25176;51.060;3.720;2023-03-29T17:11:58;17.70;95.70
39493;DHT22;25176;51.060;3.720;2023-03-29T17:14:23;17.60;95.80
39493;DHT22;25176;51.060;3.720;2023-03-29T17:16:51;17.60;95.60
39493;DHT22;25176;51.060;3.720;2023-03-29T17:19:17;17.40;95.70
39493;DHT22;25176;51.060;3.720;2023-03-29T17:21:43;17.40;95.80
39493;DHT22;25176;51.060;3.720;2023-03-29T17:24:08;17.50;95.60
39493;DHT22;25176;51.060;3.720;2023-03-29T17:26:34;17.50;95.40
39493;DHT22;25176;51.060;3.720;2023-03-29T17:29:02;17.40;95.50